Magne Viking — OURK2 — position and weather

sailwx.info

Track history (hours):
 
Tides and Currents Weather Stations Pressure Air Temp Water Temp Dewpoint Dewpoint Depression Visibility Wind Speed Wind Dir Waves Ship Positions

Magne Viking

Last reported at 2017-Jan-06 08:15 UTC. Time now 2017-Jan-20 14:07 UTC.
Position N 62°39' E 006°24'.
Warning: this ship's position is 14 days out of date.

Length 85 m; draft 6.7 m.

Type: Tug. MMSI: 219375000.

Date/timePositionNaut miles runAvg speedWind from/ knotsBaromVisibWave heightAir tempDewpointWater temp
2017-Jan-06 08:15N 62°39' E 006°24'7 9.8
2017-Jan-06 07:33N 62°45' E 006°32'19 9.7
2017-Jan-06 05:33N 63°01' E 006°54'9 9.3
2017-Jan-06 04:33N 63°08' E 007°08'9 9.5
2017-Jan-06 03:33N 63°07' E 007°28'9 8.4
2017-Jan-06 02:33N 63°06' E 007°47'0 0.0
2017-Jan-06 01:31N 63°06' E 007°47'1 0.6
2017-Jan-06 00:33N 63°06' E 007°46'6 6.1
2017-Jan-05 23:34N 63°12' E 007°45'9 9.3
2017-Jan-05 22:34N 63°20' E 007°37'7 7.4
2017-Jan-05 21:33N 63°28' E 007°34'8 7.8
2017-Jan-05 20:28N 63°36' E 007°32'5 0.1
2017-Jan-03 21:32N 63°31' E 007°31'8 8.2
2017-Jan-03 20:33N 63°23' E 007°35'8 7.7
2017-Jan-03 19:34N 63°16' E 007°39'7 7.2
2017-Jan-03 18:33N 63°09' E 007°42'3 3.3
2017-Jan-03 17:34N 63°05' E 007°42'0 0.0
2017-Jan-03 16:34N 63°05' E 007°42'0 0.0
2017-Jan-03 15:34N 63°05' E 007°42'0 0.0
2017-Jan-03 14:34N 63°05' E 007°42'0 0.3
2017-Jan-03 13:34N 63°05' E 007°41'0 0.4
2017-Jan-03 12:34N 63°05' E 007°42'0 0.0
2017-Jan-03 11:34N 63°05' E 007°42'0 0.0
2017-Jan-03 10:34N 63°05' E 007°42'0 0.0
2017-Jan-03 09:33N 63°05' E 007°42'0 0.0
2017-Jan-03 08:33N 63°05' E 007°42'0 0.0
2017-Jan-03 07:34N 63°05' E 007°42'3 3.1
2017-Jan-03 06:34N 63°09' E 007°42'7 7.4
2017-Jan-03 05:33N 63°16' E 007°39'9 9.4
2017-Jan-03 04:33N 63°25' E 007°34'9 9.5
2017-Jan-03 03:33N 63°34' E 007°30'  
2016-Dec-29 20:06N 57°21' W 001°19'10 9.6
2016-Dec-29 19:07N 57°14' W 001°31'610.0
2016-Dec-29 18:33N 57°10' W 001°38'9 9.6
2016-Dec-29 17:33N 57°03' W 001°49'  
Track history (hours):
 
Tides and Currents Weather Stations Pressure Air Temp Water Temp Dewpoint Dewpoint Depression Visibility Wind Speed Wind Dir Waves Ship Positions

Magne Viking

Last reported at 2017-Jan-06 08:15 UTC. Time now 2017-Jan-20 14:07 UTC.
Position N 62°39' E 006°24'.
Warning: this ship's position is 14 days out of date.

Length 85 m; draft 6.7 m.

Type: Tug. MMSI: 219375000.

Date/timePositionNaut miles runAvg speedWind from/ knotsBaromVisibWave heightAir tempDewpointWater temp
2017-Jan-06 08:15N 62°39' E 006°24'7 9.8
2017-Jan-06 07:33N 62°45' E 006°32'19 9.7
2017-Jan-06 05:33N 63°01' E 006°54'9 9.3
2017-Jan-06 04:33N 63°08' E 007°08'9 9.5
2017-Jan-06 03:33N 63°07' E 007°28'9 8.4
2017-Jan-06 02:33N 63°06' E 007°47'0 0.0
2017-Jan-06 01:31N 63°06' E 007°47'1 0.6
2017-Jan-06 00:33N 63°06' E 007°46'6 6.1
2017-Jan-05 23:34N 63°12' E 007°45'9 9.3
2017-Jan-05 22:34N 63°20' E 007°37'7 7.4
2017-Jan-05 21:33N 63°28' E 007°34'8 7.8
2017-Jan-05 20:28N 63°36' E 007°32'5 0.1
2017-Jan-03 21:32N 63°31' E 007°31'8 8.2
2017-Jan-03 20:33N 63°23' E 007°35'8 7.7
2017-Jan-03 19:34N 63°16' E 007°39'7 7.2
2017-Jan-03 18:33N 63°09' E 007°42'3 3.3
2017-Jan-03 17:34N 63°05' E 007°42'0 0.0
2017-Jan-03 16:34N 63°05' E 007°42'0 0.0
2017-Jan-03 15:34N 63°05' E 007°42'0 0.0
2017-Jan-03 14:34N 63°05' E 007°42'0 0.3
2017-Jan-03 13:34N 63°05' E 007°41'0 0.4
2017-Jan-03 12:34N 63°05' E 007°42'0 0.0
2017-Jan-03 11:34N 63°05' E 007°42'0 0.0
2017-Jan-03 10:34N 63°05' E 007°42'0 0.0
2017-Jan-03 09:33N 63°05' E 007°42'0 0.0
2017-Jan-03 08:33N 63°05' E 007°42'0 0.0
2017-Jan-03 07:34N 63°05' E 007°42'3 3.1
2017-Jan-03 06:34N 63°09' E 007°42'7 7.4
2017-Jan-03 05:33N 63°16' E 007°39'9 9.4
2017-Jan-03 04:33N 63°25' E 007°34'9 9.5
2017-Jan-03 03:33N 63°34' E 007°30'  
2016-Dec-29 20:06N 57°21' W 001°19'10 9.6
2016-Dec-29 19:07N 57°14' W 001°31'610.0
2016-Dec-29 18:33N 57°10' W 001°38'9 9.6
2016-Dec-29 17:33N 57°03' W 001°49'  

Dump ship's entire track history